Latest Weather Observations for Halls Creek

IDD60801

Issued at 9:31 pm CST Thursday 30 July 2015 (issued every 30 minutes, with the page automatically refreshed every 10 minutes)

About weather observations | Map of weather stations | Latest weather observations for NT | Other Formats
Station Details ID: 002012 Name: HALLS CREEK AIRPORT Lat: -18.23 Lon: 127.66 Height: 422.0 m
Data from the previous 72 hours. | See also: Recent months at Halls Creek
Date/Time
CST
Temp
°C
App
Temp
°C
Dew
Point
Rel
Hum
%
Delta-T
°C
Wind Press
QNH
hPa
Press
MSL
hPa
Rain
since 9 am
mm
Dir
 
Spd
km/h
Gust
km/h
Spd
kts
Gust
kts
30/09:30pm 20.1 18.4 3.9 34 7.9 ESE 2 6 1 3 1020.4 - 0.0
30/09:00pm 21.0 19.1 2.9 30 8.7 SE 2 4 1 2 1020.1 - 0.0
30/08:30pm 21.8 19.8 4.3 32 8.7 ESE 4 6 2 3 1019.6 - 0.0
30/08:00pm 22.5 20.7 5.2 32 8.8 ESE 4 6 2 3 1019.2 - 0.0
30/07:30pm 23.4 20.6 2.0 24 10.3 ESE 6 7 3 4 1018.9 1017.5 0.0
30/07:00pm 24.7 21.8 1.7 22 11.1 SE 6 11 3 6 1018.7 - 0.0
30/06:30pm 26.7 23.4 0.4 18 12.6 SE 7 17 4 9 1018.5 - 0.0
30/06:00pm 28.1 24.5 0.4 16 13.4 SE 9 19 5 10 1018.5 - 0.0
30/05:30pm 28.7 25.1 0.6 16 13.7 ESE 9 22 5 12 1018.4 - 0.0
30/05:00pm 29.2 25.6 0.5 15 14.0 ESE 9 19 5 10 1018.4 - 0.0
30/04:30pm 29.5 26.5 0.8 15 14.1 E 6 17 3 9 1018.5 1017.1 0.0
30/04:00pm 29.2 25.9 0.1 15 14.1 E 7 17 4 9 1018.7 - 0.0
30/03:30pm 29.3 25.5 -0.5 14 14.3 E 9 24 5 13 1018.9 - 0.0
30/03:00pm 29.4 26.0 1.8 17 13.8 E 9 20 5 11 1019.3 - 0.0
30/02:30pm 28.6 25.3 2.2 18 13.2 E 9 22 5 12 1019.6 - 0.0
30/02:00pm 28.4 25.4 2.2 18 13.1 ENE 7 19 4 10 1020.2 - 0.0
30/01:30pm 28.5 25.8 2.7 19 13.0 ENE 6 15 3 8 1020.9 1019.5 0.0
30/01:00pm 28.0 24.6 4.1 21 12.3 NE 11 22 6 12 1021.4 - 0.0
30/12:30pm 27.2 23.5 2.5 20 12.3 E 11 22 6 12 1021.9 - 0.0
30/11:30am 25.8 21.6 -0.6 17 12.3 E 11 22 6 12 1022.8 - 0.0
30/10:00am 21.8 17.9 -1.8 20 10.5 E 9 17 5 9 1023.3 - 0.0
30/09:00am 18.8 15.8 0.6 29 8.2 ESE 6 9 3 5 1022.8 - 0.0
30/08:30am 17.6 14.6 0.9 32 7.5 ESE 6 7 3 4 1022.7 - 0.0
30/07:00am 14.6 12.7 3.0 45 5.3 E 2 4 1 2 1021.8 - 0.0
30/06:30am 14.6 12.6 2.2 43 5.6 E 2 2 1 1 1021.4 - 0.0
30/06:00am 14.5 12.6 2.9 45 5.3 E 2 4 1 2 1021.1 - 0.0
30/05:30am 14.7 12.8 2.6 44 5.5 E 2 4 1 2 1020.9 - 0.0
30/05:00am 15.4 13.4 2.5 42 5.9 NE 2 2 1 1 1020.9 - 0.0
30/04:30am 15.7 13.3 2.0 39 6.2 ESE 4 9 2 5 1020.6 1019.2 0.0
30/04:00am 15.4 13.9 3.1 43 5.7 CALM 0 4 0 2 1020.7 - 0.0
30/03:30am 15.6 13.6 2.2 40 6.1 N 2 4 1 2 1020.8 - 0.0
30/03:00am 16.1 14.1 2.3 39 6.3 ENE 2 4 1 2 1020.8 - 0.0
30/02:30am 15.9 14.0 2.9 41 6.0 ESE 2 4 1 2 1020.8 - 0.0
30/02:00am 16.2 14.7 2.8 40 6.2 CALM 0 2 0 1 1021.0 - 0.0
30/01:30am 17.1 14.9 3.3 39 6.5 ENE 4 6 2 3 1021.4 1020.0 0.0
30/01:00am 17.9 16.0 2.7 36 7.1 E 2 4 1 2 1021.4 - 0.0
30/12:30am 17.3 15.5 3.6 40 6.5 SE 2 2 1 1 1021.4 - 0.0
30/12:00am 17.7 15.8 2.7 36 7.0 E 2 4 1 2 1021.5 - 0.0
 
Date/Time
CST
Temp
°C
App
Temp
°C
Dew
Point
Rel
Hum
%
Delta-T
°C
Wind Press
QNH
hPa
Press
MSL
hPa
Rain
since 9 am
mm
Dir
 
Spd
km/h
Gust
km/h
Spd
kts
Gust
kts
29/11:30pm 17.7 16.2 4.8 42 6.3 SE 2 4 1 2 1021.6 - 0.0
29/11:00pm 18.5 16.7 3.4 36 7.2 E 2 2 1 1 1021.6 - 0.0
29/10:30pm 18.8 17.0 3.6 36 7.3 ENE 2 4 1 2 1021.6 1020.2 0.0
29/10:00pm 19.1 17.3 3.4 35 7.5 ESE 2 4 1 2 1021.6 - 0.0
29/09:30pm 20.0 17.2 2.1 30 8.4 ESE 6 7 3 4 1021.3 - 0.0
29/09:00pm 19.6 17.5 3.7 35 7.7 SE 4 4 2 2 1021.1 - 0.0
29/08:30pm 19.8 17.9 5.1 38 7.3 SE 4 4 2 2 1020.9 - 0.0
29/08:00pm 20.8 18.8 2.2 29 8.8 SE 2 4 1 2 1020.6 - 0.0
29/07:30pm 21.3 19.2 4.1 32 8.5 SE 4 4 2 2 1020.2 1018.8 0.0
29/07:00pm 23.0 20.7 2.6 26 9.9 ESE 4 7 2 4 1020.1 - 0.0
29/06:30pm 24.7 21.5 -0.2 19 11.6 ESE 6 11 3 6 1020.1 - 0.0
29/06:00pm 25.9 21.7 -0.7 17 12.4 ESE 11 17 6 9 1019.7 - 0.0
29/05:30pm 26.4 22.6 -0.8 17 12.7 ESE 9 19 5 10 1019.8 - 0.0
29/05:00pm 26.6 22.8 -1.1 16 12.9 ESE 9 28 5 15 1019.7 - 0.0
29/04:30pm 26.6 22.3 -2.0 15 13.1 ESE 11 22 6 12 1019.8 1018.4 0.0
29/04:00pm 27.4 22.7 -1.8 14 13.5 ESE 13 20 7 11 1019.8 - 0.0
29/03:30pm 27.3 23.0 -1.6 15 13.4 ESE 11 22 6 12 1019.9 - 0.0
29/03:00pm 26.7 21.9 -2.2 15 13.2 E 13 26 7 14 1020.4 - 0.0
29/02:30pm 26.0 21.0 -4.7 13 13.3 E 13 30 7 16 1020.8 - 0.0
29/02:00pm 25.8 20.8 -4.7 13 13.2 ESE 13 26 7 14 1021.3 - 0.0
29/01:30pm 25.3 20.2 -5.1 13 13.0 ESE 13 26 7 14 1021.8 1020.4 0.0
29/01:00pm 24.6 19.9 -5.0 13 12.6 E 11 24 6 13 1022.7 - 0.0
29/12:30pm 23.2 17.7 -5.8 14 12.0 E 15 28 8 15 1023.2 - 0.0
29/12:00pm 22.4 17.6 -6.5 14 11.7 E 11 24 6 13 1023.8 - 0.0
29/11:30am 20.8 15.6 -6.7 15 11.0 E 13 26 7 14 1024.4 - 0.0
29/11:00am 19.9 13.8 -7.5 15 10.6 E 17 26 9 14 1024.7 - 0.0
29/10:30am 19.2 13.1 -7.8 15 10.3 E 17 30 9 16 1025.1 1023.7 0.0
29/10:00am 18.6 12.4 -8.4 15 10.2 E 17 35 9 19 1025.1 - 0.0
29/09:30am 17.8 12.6 -6.6 18 9.4 E 13 28 7 15 1025.1 - 0.0
29/09:00am 17.2 12.1 -5.6 20 8.9 E 13 24 7 13 1024.9 - 0.0
29/08:30am 16.2 11.5 -5.5 22 8.4 E 11 26 6 14 1024.7 - 0.0
29/08:00am 15.0 10.8 -4.0 26 7.5 E 9 20 5 11 1024.3 - 0.0
29/07:30am 13.8 10.5 -1.5 34 6.3 E 6 9 3 5 1023.9 1022.5 0.0
29/07:00am 14.1 10.8 -1.3 34 6.4 E 6 11 3 6 1023.7 - 0.0
29/06:30am 13.8 10.6 -0.8 36 6.1 ESE 6 11 3 6 1023.5 - 0.0
29/06:00am 14.5 11.3 -0.6 35 6.4 ESE 6 9 3 5 1023.3 - 0.0
29/05:30am 15.1 11.9 -0.3 35 6.6 E 6 9 3 5 1023.2 - 0.0
29/05:00am 15.8 12.5 -0.9 32 7.1 E 6 11 3 6 1023.3 - 0.0
29/04:30am 15.9 12.7 -0.7 32 7.1 E 6 13 3 7 1023.2 1021.8 0.0
29/04:00am 15.4 12.4 0.5 36 6.5 E 6 9 3 5 1023.2 - 0.0
29/03:30am 15.8 13.1 0.2 34 6.8 E 4 9 2 5 1023.2 - 0.0
29/03:00am 15.8 12.7 -0.1 34 6.9 ESE 6 9 3 5 1023.3 - 0.0
29/02:30am 16.1 13.0 0.4 34 6.9 ESE 6 9 3 5 1023.4 - 0.0
29/02:00am 17.1 13.7 -0.3 30 7.6 ESE 7 13 4 7 1023.4 - 0.0
29/01:30am 16.6 13.4 0.5 33 7.1 ESE 7 9 4 5 1023.6 1022.2 0.0
29/01:00am 17.0 14.0 0.9 33 7.2 ESE 6 9 3 5 1023.5 - 0.0
29/12:30am 17.5 15.0 1.4 34 7.3 ESE 4 6 2 3 1023.5 - 0.0
29/12:00am 18.5 16.6 2.8 35 7.4 E 2 6 1 3 1023.5 - 0.0
 
Date/Time
CST
Temp
°C
App
Temp
°C
Dew
Point
Rel
Hum
%
Delta-T
°C
Wind Press
QNH
hPa
Press
MSL
hPa
Rain
since 9 am
mm
Dir
 
Spd
km/h
Gust
km/h
Spd
kts
Gust
kts
28/11:30pm 19.8 16.8 0.7 28 8.7 E 6 13 3 7 1023.6 - 0.0
28/11:00pm 20.7 16.6 -0.1 25 9.4 ESE 11 20 6 11 1023.6 - 0.0
28/10:30pm 20.4 17.6 1.8 29 8.7 E 6 11 3 6 1023.6 1022.2 0.0
28/10:00pm 20.0 17.3 2.4 31 8.3 ESE 6 7 3 4 1023.3 - 0.0
28/09:30pm 20.3 18.1 3.3 32 8.2 ESE 4 7 2 4 1023.2 - 0.0
28/09:00pm 21.2 18.5 2.9 30 8.8 ESE 6 7 3 4 1022.9 - 0.0
28/08:30pm 21.6 19.0 3.3 30 8.9 ESE 6 7 3 4 1022.6 - 0.0
28/08:00pm 22.1 19.5 3.2 29 9.2 ESE 6 9 3 5 1022.2 - 0.0
28/07:30pm 23.1 20.4 2.8 26 9.9 ESE 6 11 3 6 1021.7 1020.3 0.0
28/07:00pm 23.8 21.2 3.1 26 10.2 ESE 6 9 3 5 1021.4 - 0.0
28/06:30pm 25.3 21.6 2.2 22 11.3 ESE 11 22 6 12 1021.1 - 0.0
28/06:00pm 26.4 22.7 2.3 21 11.9 ESE 11 22 6 12 1020.9 - 0.0
28/05:30pm 27.0 23.3 2.1 20 12.3 ESE 11 19 6 10 1020.8 - 0.0
28/05:00pm 27.2 23.1 2.2 20 12.4 ESE 13 26 7 14 1020.8 - 0.0
28/04:30pm 27.3 22.7 1.6 19 12.6 ESE 15 26 8 14 1020.8 1019.4 0.0
28/04:00pm 27.7 23.3 2.5 19 12.6 ESE 15 28 8 15 1020.9 - 0.0
28/03:30pm 27.4 23.7 2.2 19 12.5 ESE 11 19 6 10 1021.1 - 0.0
28/03:00pm 26.7 22.9 1.8 20 12.2 ESE 11 22 6 12 1021.5 - 0.0
28/02:30pm 25.9 22.1 1.6 20 11.8 E 11 22 6 12 1021.8 - 0.0
28/02:00pm 26.0 22.1 1.4 20 11.9 E 11 24 6 13 1022.3 - 0.0
28/01:30pm 25.1 20.9 1.8 22 11.3 E 13 28 7 15 1023.1 1021.7 0.0
28/01:00pm 24.4 19.5 2.1 23 10.8 E 17 30 9 16 1023.7 - 0.0
28/12:30pm 23.5 19.0 2.1 24 10.3 E 15 30 8 16 1024.2 - 0.0
28/12:00pm 23.2 19.1 2.2 25 10.1 E 13 28 7 15 1024.6 - 0.0
28/11:30am 21.9 17.4 2.2 27 9.4 E 15 26 8 14 1025.1 - 0.0
28/11:00am 21.2 16.7 2.2 28 9.0 E 15 28 8 15 1025.5 - 0.0
28/10:30am 20.1 15.6 2.2 30 8.4 E 15 30 8 16 1025.7 1024.3 0.0
28/10:00am 19.2 13.9 2.0 31 8.0 E 19 39 10 21 1025.7 - 0.0
28/09:30am 19.1 13.7 2.5 33 7.8 E 20 39 11 21 1025.6 - 0.0
28/09:00am 18.3 13.4 2.1 34 7.5 E 17 32 9 17 1025.3 - 0.0
28/08:30am 18.0 13.6 2.5 35 7.2 E 15 28 8 15 1025.2 - 0.0
28/08:00am 17.5 13.1 2.7 37 6.9 E 15 30 8 16 1024.9 - 0.0
28/07:30am 17.4 13.3 2.5 37 6.9 E 13 26 7 14 1024.5 1023.2 0.0
28/07:00am 17.5 13.9 3.0 38 6.8 E 11 28 6 15 1024.2 - 0.0
28/06:30am 17.8 13.8 2.9 37 7.0 E 13 24 7 13 1023.8 - 0.0
28/06:00am 18.2 14.6 2.9 36 7.2 E 11 20 6 11 1023.6 - 0.0
28/05:30am 18.7 14.7 2.8 34 7.5 E 13 28 7 15 1023.3 - 0.0
28/05:00am 18.8 14.8 2.9 34 7.5 E 13 30 7 16 1023.1 - 0.0
28/04:30am 19.0 15.9 3.6 36 7.4 E 9 22 5 12 1023.1 1021.7 0.0
28/04:00am 19.1 16.5 4.3 37 7.2 E 7 17 4 9 1023.2 - 0.0
28/03:30am 19.4 16.9 4.5 37 7.3 E 7 20 4 11 1023.1 - 0.0
28/03:00am 19.9 16.6 4.4 36 7.6 E 11 26 6 14 1022.9 - 0.0
28/02:30am 20.2 16.5 4.6 36 7.7 ESE 13 24 7 13 1023.1 - 0.0
28/02:00am 20.8 16.8 4.7 34 8.0 ESE 15 26 8 14 1023.2 - 0.0
28/01:30am 20.9 17.3 4.8 35 8.0 ESE 13 22 7 12 1023.4 1022.0 0.0
28/01:00am 20.8 18.1 5.5 36 7.7 ESE 9 19 5 10 1023.6 - 0.0
28/12:30am 21.4 18.6 5.3 35 8.1 ESE 9 19 5 10 1023.5 - 0.0
28/12:00am 22.1 18.1 5.0 32 8.6 ESE 15 26 8 14 1023.6 - 0.0
 
Date/Time
CST
Temp
°C
App
Temp
°C
Dew
Point
Rel
Hum
%
Delta-T
°C
Wind Press
QNH
hPa
Press
MSL
hPa
Rain
since 9 am
mm
Dir
 
Spd
km/h
Gust
km/h
Spd
kts
Gust
kts
27/11:30pm 22.6 18.3 5.3 32 8.8 ESE 17 30 9 16 1023.6 - 0.0

Other Formats:

Comma delimited format used in spreadsheet applications
http://www.bom.gov.au/fwo/IDD60801/IDD60801.94212.axf

JavaScript Object Notation format (JSON) in row-major order
http://www.bom.gov.au/fwo/IDD60801/IDD60801.94212.json